createdAt,value
2023-08-26T00:06:14.798Z,100.00
2023-08-26T00:16:19.007Z,100.00
2023-08-26T00:26:21.808Z,100.00
2023-08-26T00:36:26.010Z,100.00
2023-08-26T00:46:29.726Z,100.00
2023-08-26T00:56:34.598Z,99.76
2023-08-26T01:06:37.357Z,98.92
2023-08-26T01:16:42.206Z,97.92
2023-08-26T01:26:46.350Z,98.29
2023-08-26T01:36:50.643Z,96.80
2023-08-26T01:53:57.138Z,96.79
2023-08-26T02:03:59.939Z,95.64
2023-08-26T02:14:04.050Z,95.66
2023-08-26T02:24:07.438Z,95.27
2023-08-26T02:34:11.566Z,93.52
2023-08-26T02:44:14.362Z,93.98
2023-08-26T02:54:18.540Z,93.70
2023-08-26T03:04:21.374Z,95.84
2023-08-26T03:14:25.745Z,95.55
2023-08-26T03:24:28.701Z,97.44
2023-08-26T03:34:33.414Z,90.54
2023-08-26T03:44:36.237Z,77.73
2023-08-26T03:54:40.370Z,70.12
2023-08-26T04:04:43.245Z,67.50
2023-08-26T04:14:47.431Z,68.84
2023-08-26T04:24:50.522Z,66.06
2023-08-26T04:34:54.572Z,66.07
2023-08-26T04:44:57.267Z,63.48
2023-08-26T04:55:01.589Z,63.34
2023-08-26T05:05:04.483Z,63.86
2023-08-26T05:15:09.628Z,63.76
2023-08-26T05:25:12.448Z,63.32
2023-08-26T05:35:17.259Z,63.60
2023-08-26T05:45:19.963Z,64.87
2023-08-26T05:55:24.024Z,64.96
2023-08-26T06:05:26.855Z,65.79
2023-08-26T06:15:30.976Z,67.18
2023-08-26T06:25:34.031Z,65.00
2023-08-26T06:35:38.152Z,64.92
2023-08-26T06:45:41.085Z,67.22
2023-08-26T06:55:45.280Z,67.18
2023-08-26T07:05:49.166Z,65.95
2023-08-26T07:15:53.497Z,65.58
2023-08-26T07:25:56.192Z,65.01
2023-08-26T07:36:04.657Z,63.29
2023-08-26T07:56:17.361Z,59.75
2023-08-26T08:06:20.510Z,54.26
2023-08-26T08:16:25.982Z,52.48
2023-08-26T08:26:33.539Z,49.71
2023-08-26T08:36:38.036Z,49.50
2023-08-26T08:46:41.214Z,47.34
2023-08-26T08:56:45.703Z,46.86
2023-08-26T09:06:50.393Z,44.06
2023-08-26T09:16:58.919Z,44.09
2023-08-26T09:27:03.297Z,42.50
2023-08-26T09:37:09.475Z,41.68
2023-08-26T09:47:13.597Z,40.31
2023-08-26T09:57:18.355Z,40.63
2023-08-26T10:07:22.276Z,39.48
2023-08-26T10:17:28.341Z,39.72
2023-08-26T10:27:31.578Z,38.04
2023-08-26T10:37:38.460Z,36.30
2023-08-26T10:47:46.107Z,34.73
2023-08-26T10:58:10.862Z,37.18
2023-08-26T11:08:14.018Z,35.69
2023-08-26T11:18:18.643Z,37.19
2023-08-26T11:28:21.508Z,39.68
2023-08-26T11:38:25.886Z,43.26
2023-08-26T11:48:28.986Z,44.30
2023-08-26T11:58:33.624Z,42.44
2023-08-26T12:08:36.396Z,42.53
2023-08-26T12:18:43.460Z,38.56
2023-08-26T12:28:46.257Z,39.99
2023-08-26T12:38:50.448Z,35.61
2023-08-26T12:48:55.574Z,35.23
2023-08-26T12:59:02.446Z,33.50
2023-08-26T13:09:05.639Z,35.94
2023-08-26T13:19:09.785Z,37.57
2023-08-26T13:29:12.933Z,35.31
2023-08-26T13:39:17.206Z,35.90
2023-08-26T13:49:20.056Z,34.88
2023-08-26T13:59:25.146Z,32.97
2023-08-26T14:09:31.235Z,37.07
2023-08-26T14:19:37.241Z,37.44
2023-08-26T14:29:40.743Z,38.84
2023-08-26T14:39:44.898Z,42.10
2023-08-26T14:49:47.785Z,43.37
2023-08-26T14:59:51.870Z,43.40
2023-08-26T15:09:55.969Z,44.42
2023-08-26T15:20:01.061Z,44.47
2023-08-26T15:30:05.067Z,41.49
2023-08-26T15:40:10.784Z,42.51
2023-08-26T15:50:15.845Z,45.25
2023-08-26T16:00:20.211Z,48.04
2023-08-26T16:10:23.561Z,47.91
2023-08-26T16:20:27.973Z,47.08
2023-08-26T16:30:30.750Z,49.81
2023-08-26T16:40:34.963Z,49.84
2023-08-26T16:50:39.697Z,51.39
2023-08-26T17:00:44.119Z,51.85
2023-08-26T17:10:47.295Z,51.40
2023-08-26T17:20:51.501Z,52.75
2023-08-26T17:30:55.652Z,53.87
2023-08-26T17:40:59.982Z,55.08
2023-08-26T17:51:03.723Z,55.67
2023-08-26T18:01:07.906Z,55.98
2023-08-26T18:11:10.994Z,58.60
2023-08-26T18:21:17.232Z,58.51
2023-08-26T18:31:20.070Z,59.31
2023-08-26T18:41:24.153Z,58.13
2023-08-26T18:51:26.906Z,59.32
2023-08-26T19:01:33.535Z,60.30
2023-08-26T19:11:36.791Z,59.69
2023-08-26T19:21:41.282Z,63.23
2023-08-26T19:31:44.382Z,61.04
2023-08-26T19:41:48.520Z,60.63
2023-08-26T19:51:51.524Z,60.59
2023-08-26T20:01:55.819Z,61.76
2023-08-26T20:11:58.749Z,60.50
2023-08-26T20:22:04.163Z,59.21
2023-08-26T20:32:07.675Z,60.79
2023-08-26T20:42:12.004Z,60.68
2023-08-26T20:52:14.815Z,60.57
2023-08-26T21:02:19.259Z,61.65
2023-08-26T21:12:22.015Z,61.51
2023-08-26T21:22:26.453Z,65.37
2023-08-26T21:32:29.256Z,67.90
2023-08-26T21:42:33.681Z,67.66
2023-08-26T21:52:36.384Z,70.96
2023-08-26T22:02:40.565Z,72.52
2023-08-26T22:12:43.445Z,73.06
2023-08-26T22:22:47.841Z,74.02
2023-08-26T22:32:50.616Z,73.56
2023-08-26T22:42:54.951Z,74.10
2023-08-26T22:52:58.359Z,75.82
2023-08-26T23:03:02.910Z,76.35
2023-08-26T23:13:06.429Z,76.34
2023-08-26T23:23:10.466Z,76.57
2023-08-26T23:33:13.158Z,76.97
2023-08-26T23:43:17.362Z,76.64
2023-08-26T23:53:20.227Z,77.06
